sensor_id;sensor_type;location;lat;lon;timestamp;temperature;humidity
22680;DHT22;11507;44.858;10.374;2022-07-05T00:00:36;19.50;99.90
22680;DHT22;11507;44.858;10.374;2022-07-05T00:03:02;19.50;99.90
22680;DHT22;11507;44.858;10.374;2022-07-05T00:05:28;19.40;99.90
22680;DHT22;11507;44.858;10.374;2022-07-05T00:07:53;19.40;99.90
22680;DHT22;11507;44.858;10.374;2022-07-05T00:10:19;19.30;99.90
22680;DHT22;11507;44.858;10.374;2022-07-05T00:12:45;19.30;99.90
22680;DHT22;11507;44.858;10.374;2022-07-05T00:15:11;19.20;99.90
22680;DHT22;11507;44.858;10.374;2022-07-05T00:17:37;19.20;99.90
22680;DHT22;11507;44.858;10.374;2022-07-05T00:20:03;19.20;99.90
22680;DHT22;11507;44.858;10.374;2022-07-05T00:22:29;19.20;99.90
22680;DHT22;11507;44.858;10.374;2022-07-05T00:24:55;19.10;99.90
22680;DHT22;11507;44.858;10.374;2022-07-05T00:27:21;19.10;99.90
22680;DHT22;11507;44.858;10.374;2022-07-05T00:29:47;19.20;99.90
22680;DHT22;11507;44.858;10.374;2022-07-05T00:32:13;19.20;99.90
22680;DHT22;11507;44.858;10.374;2022-07-05T00:34:39;19.30;99.90
22680;DHT22;11507;44.858;10.374;2022-07-05T00:37:05;19.30;99.90
22680;DHT22;11507;44.858;10.374;2022-07-05T00:39:31;19.20;99.90
22680;DHT22;11507;44.858;10.374;2022-07-05T00:41:57;19.30;99.90
22680;DHT22;11507;44.858;10.374;2022-07-05T00:44:33;19.30;99.90
22680;DHT22;11507;44.858;10.374;2022-07-05T00:47:04;19.30;99.90
22680;DHT22;11507;44.858;10.374;2022-07-05T00:49:31;19.20;99.90
22680;DHT22;11507;44.858;10.374;2022-07-05T00:52:00;19.20;99.90
22680;DHT22;11507;44.858;10.374;2022-07-05T00:54:28;19.30;99.90
22680;DHT22;11507;44.858;10.374;2022-07-05T00:56:54;19.40;99.90
22680;DHT22;11507;44.858;10.374;2022-07-05T00:59:21;19.50;99.90
22680;DHT22;11507;44.858;10.374;2022-07-05T01:01:47;19.50;99.90
22680;DHT22;11507;44.858;10.374;2022-07-05T01:04:13;19.50;99.90
22680;DHT22;11507;44.858;10.374;2022-07-05T01:06:40;19.50;99.90
22680;DHT22;11507;44.858;10.374;2022-07-05T01:09:10;19.50;99.90
22680;DHT22;11507;44.858;10.374;2022-07-05T01:11:39;19.50;99.90
22680;DHT22;11507;44.858;10.374;2022-07-05T01:14:06;19.40;99.90
22680;DHT22;11507;44.858;10.374;2022-07-05T01:16:39;19.40;99.90
22680;DHT22;11507;44.858;10.374;2022-07-05T01:19:07;19.40;99.90
22680;DHT22;11507;44.858;10.374;2022-07-05T01:21:40;19.40;99.90
22680;DHT22;11507;44.858;10.374;2022-07-05T01:24:07;19.50;99.90
22680;DHT22;11507;44.858;10.374;2022-07-05T01:26:34;19.50;99.90
22680;DHT22;11507;44.858;10.374;2022-07-05T01:29:00;19.60;99.90
22680;DHT22;11507;44.858;10.374;2022-07-05T01:31:26;19.70;99.90
22680;DHT22;11507;44.858;10.374;2022-07-05T01:33:52;19.70;99.90
22680;DHT22;11507;44.858;10.374;2022-07-05T01:36:18;19.70;99.90
22680;DHT22;11507;44.858;10.374;2022-07-05T01:38:45;19.70;99.90
22680;DHT22;11507;44.858;10.374;2022-07-05T01:41:11;19.70;99.90
22680;DHT22;11507;44.858;10.374;2022-07-05T01:43:37;19.70;99.90
22680;DHT22;11507;44.858;10.374;2022-07-05T01:46:05;19.70;99.90
22680;DHT22;11507;44.858;10.374;2022-07-05T01:48:35;19.80;99.90
22680;DHT22;11507;44.858;10.374;2022-07-05T01:51:13;19.80;99.90
22680;DHT22;11507;44.858;10.374;2022-07-05T01:53:39;19.80;99.90
22680;DHT22;11507;44.858;10.374;2022-07-05T01:56:06;19.70;99.90
22680;DHT22;11507;44.858;10.374;2022-07-05T01:58:32;19.80;99.90
22680;DHT22;11507;44.858;10.374;2022-07-05T02:00:59;19.70;99.90
22680;DHT22;11507;44.858;10.374;2022-07-05T02:03:25;19.70;99.90
22680;DHT22;11507;44.858;10.374;2022-07-05T02:05:52;19.70;99.90
22680;DHT22;11507;44.858;10.374;2022-07-05T02:08:20;19.70;99.90
22680;DHT22;11507;44.858;10.374;2022-07-05T02:10:46;19.70;99.90
22680;DHT22;11507;44.858;10.374;2022-07-05T02:13:13;19.60;99.90
22680;DHT22;11507;44.858;10.374;2022-07-05T02:15:41;19.60;99.90
22680;DHT22;11507;44.858;10.374;2022-07-05T02:18:09;19.50;99.90
22680;DHT22;11507;44.858;10.374;2022-07-05T02:20:40;19.50;99.90
22680;DHT22;11507;44.858;10.374;2022-07-05T02:23:08;19.50;99.90
22680;DHT22;11507;44.858;10.374;2022-07-05T02:25:35;19.50;99.90
22680;DHT22;11507;44.858;10.374;2022-07-05T02:28:06;19.60;99.90
22680;DHT22;11507;44.858;10.374;2022-07-05T02:30:34;19.60;99.90
22680;DHT22;11507;44.858;10.374;2022-07-05T02:33:01;19.50;99.90
22680;DHT22;11507;44.858;10.374;2022-07-05T02:35:27;19.40;99.90
22680;DHT22;11507;44.858;10.374;2022-07-05T02:37:55;19.30;99.90
22680;DHT22;11507;44.858;10.374;2022-07-05T02:40:21;19.20;99.90
22680;DHT22;11507;44.858;10.374;2022-07-05T02:42:50;19.10;99.90
22680;DHT22;11507;44.858;10.374;2022-07-05T02:45:17;19.00;99.90
22680;DHT22;11507;44.858;10.374;2022-07-05T02:47:46;18.90;99.90
22680;DHT22;11507;44.858;10.374;2022-07-05T02:50:13;18.90;99.90
22680;DHT22;11507;44.858;10.374;2022-07-05T02:52:43;18.90;99.90
22680;DHT22;11507;44.858;10.374;2022-07-05T02:55:11;18.80;99.90
22680;DHT22;11507;44.858;10.374;2022-07-05T02:57:38;18.80;99.90
22680;DHT22;11507;44.858;10.374;2022-07-05T03:00:05;18.80;99.90
22680;DHT22;11507;44.858;10.374;2022-07-05T03:02:41;18.80;99.90
22680;DHT22;11507;44.858;10.374;2022-07-05T03:05:09;18.80;99.90
22680;DHT22;11507;44.858;10.374;2022-07-05T03:07:38;18.80;99.90
22680;DHT22;11507;44.858;10.374;2022-07-05T03:10:05;18.70;99.90
22680;DHT22;11507;44.858;10.374;2022-07-05T03:12:31;18.70;99.90
22680;DHT22;11507;44.858;10.374;2022-07-05T03:14:57;18.60;99.90
22680;DHT22;11507;44.858;10.374;2022-07-05T03:17:24;18.50;99.90
22680;DHT22;11507;44.858;10.374;2022-07-05T03:19:52;18.50;99.90
22680;DHT22;11507;44.858;10.374;2022-07-05T03:22:22;18.40;99.90
22680;DHT22;11507;44.858;10.374;2022-07-05T03:24:49;18.40;99.90
22680;DHT22;11507;44.858;10.374;2022-07-05T03:27:16;18.40;99.90
22680;DHT22;11507;44.858;10.374;2022-07-05T03:29:42;18.50;99.90
22680;DHT22;11507;44.858;10.374;2022-07-05T03:32:09;18.40;99.90
22680;DHT22;11507;44.858;10.374;2022-07-05T03:34:36;18.40;99.90
22680;DHT22;11507;44.858;10.374;2022-07-05T03:37:05;18.30;99.90
22680;DHT22;11507;44.858;10.374;2022-07-05T03:39:32;18.30;99.90
22680;DHT22;11507;44.858;10.374;2022-07-05T03:42:00;18.30;99.90
22680;DHT22;11507;44.858;10.374;2022-07-05T03:44:29;18.30;99.90
22680;DHT22;11507;44.858;10.374;2022-07-05T03:47:01;18.20;99.90
22680;DHT22;11507;44.858;10.374;2022-07-05T03:49:28;18.20;99.90
22680;DHT22;11507;44.858;10.374;2022-07-05T03:51:54;18.20;99.90
22680;DHT22;11507;44.858;10.374;2022-07-05T03:54:20;18.30;99.90
22680;DHT22;11507;44.858;10.374;2022-07-05T03:56:47;18.30;99.90
22680;DHT22;11507;44.858;10.374;2022-07-05T03:59:16;18.30;99.90
22680;DHT22;11507;44.858;10.374;2022-07-05T04:01:42;18.30;99.90
22680;DHT22;11507;44.858;10.374;2022-07-05T04:04:09;18.30;99.90
22680;DHT22;11507;44.858;10.374;2022-07-05T04:06:36;18.30;99.90
22680;DHT22;11507;44.858;10.374;2022-07-05T04:09:03;18.30;99.90
22680;DHT22;11507;44.858;10.374;2022-07-05T04:11:30;18.30;99.90
22680;DHT22;11507;44.858;10.374;2022-07-05T04:13:56;18.30;99.90
22680;DHT22;11507;44.858;10.374;2022-07-05T04:16:22;18.30;99.90
22680;DHT22;11507;44.858;10.374;2022-07-05T04:18:48;18.40;99.90
22680;DHT22;11507;44.858;10.374;2022-07-05T04:21:13;18.40;99.90
22680;DHT22;11507;44.858;10.374;2022-07-05T04:23:40;18.40;99.90
22680;DHT22;11507;44.858;10.374;2022-07-05T04:26:06;18.40;99.90
22680;DHT22;11507;44.858;10.374;2022-07-05T04:28:40;18.40;99.90
22680;DHT22;11507;44.858;10.374;2022-07-05T04:31:09;18.40;99.90
22680;DHT22;11507;44.858;10.374;2022-07-05T04:33:40;18.50;99.90
22680;DHT22;11507;44.858;10.374;2022-07-05T04:36:06;18.50;99.90
22680;DHT22;11507;44.858;10.374;2022-07-05T04:38:32;18.50;99.90
22680;DHT22;11507;44.858;10.374;2022-07-05T04:41:00;18.50;99.90
22680;DHT22;11507;44.858;10.374;2022-07-05T04:43:28;18.60;99.90
22680;DHT22;11507;44.858;10.374;2022-07-05T04:45:55;18.60;99.90
22680;DHT22;11507;44.858;10.374;2022-07-05T04:48:21;18.70;99.90
22680;DHT22;11507;44.858;10.374;2022-07-05T04:50:47;18.70;99.90
22680;DHT22;11507;44.858;10.374;2022-07-05T04:53:13;18.80;99.90
22680;DHT22;11507;44.858;10.374;2022-07-05T04:55:40;18.90;99.90
22680;DHT22;11507;44.858;10.374;2022-07-05T04:58:05;19.00;99.90
22680;DHT22;11507;44.858;10.374;2022-07-05T05:00:31;19.20;99.90
22680;DHT22;11507;44.858;10.374;2022-07-05T05:02:57;19.30;99.90
22680;DHT22;11507;44.858;10.374;2022-07-05T05:05:23;19.40;99.90
22680;DHT22;11507;44.858;10.374;2022-07-05T05:07:51;19.50;99.90
22680;DHT22;11507;44.858;10.374;2022-07-05T05:10:16;19.70;99.90
22680;DHT22;11507;44.858;10.374;2022-07-05T05:12:42;19.80;99.90
22680;DHT22;11507;44.858;10.374;2022-07-05T05:15:09;19.90;99.90
22680;DHT22;11507;44.858;10.374;2022-07-05T05:17:44;20.00;99.90
22680;DHT22;11507;44.858;10.374;2022-07-05T05:20:16;20.10;99.90
22680;DHT22;11507;44.858;10.374;2022-07-05T05:22:44;20.30;99.90
22680;DHT22;11507;44.858;10.374;2022-07-05T05:25:11;20.40;99.90
22680;DHT22;11507;44.858;10.374;2022-07-05T05:27:49;20.60;99.90
22680;DHT22;11507;44.858;10.374;2022-07-05T05:30:19;20.70;99.90
22680;DHT22;11507;44.858;10.374;2022-07-05T05:32:45;21.00;99.90
22680;DHT22;11507;44.858;10.374;2022-07-05T05:35:13;21.10;99.90
22680;DHT22;11507;44.858;10.374;2022-07-05T05:37:53;21.30;99.90
22680;DHT22;11507;44.858;10.374;2022-07-05T05:40:20;21.50;99.90
22680;DHT22;11507;44.858;10.374;2022-07-05T05:42:47;21.70;99.90
22680;DHT22;11507;44.858;10.374;2022-07-05T05:45:14;21.80;99.90
22680;DHT22;11507;44.858;10.374;2022-07-05T05:47:50;22.00;99.90
22680;DHT22;11507;44.858;10.374;2022-07-05T05:50:25;22.20;99.90
22680;DHT22;11507;44.858;10.374;2022-07-05T05:52:51;22.40;99.90
22680;DHT22;11507;44.858;10.374;2022-07-05T05:55:18;22.50;99.90
22680;DHT22;11507;44.858;10.374;2022-07-05T05:57:44;22.70;99.90
22680;DHT22;11507;44.858;10.374;2022-07-05T06:00:11;22.90;99.90
22680;DHT22;11507;44.858;10.374;2022-07-05T06:02:40;23.10;99.90
22680;DHT22;11507;44.858;10.374;2022-07-05T06:05:06;23.30;99.90
22680;DHT22;11507;44.858;10.374;2022-07-05T06:07:44;23.40;99.90
22680;DHT22;11507;44.858;10.374;2022-07-05T06:10:10;23.60;99.90
22680;DHT22;11507;44.858;10.374;2022-07-05T06:12:37;23.80;99.90
22680;DHT22;11507;44.858;10.374;2022-07-05T06:15:04;23.90;99.90
22680;DHT22;11507;44.858;10.374;2022-07-05T06:17:36;24.10;99.90
22680;DHT22;11507;44.858;10.374;2022-07-05T06:20:11;24.20;99.90
22680;DHT22;11507;44.858;10.374;2022-07-05T06:22:39;24.20;99.90
22680;DHT22;11507;44.858;10.374;2022-07-05T06:25:06;24.30;99.90
22680;DHT22;11507;44.858;10.374;2022-07-05T06:27:47;24.40;99.90
22680;DHT22;11507;44.858;10.374;2022-07-05T06:30:15;24.60;99.90
22680;DHT22;11507;44.858;10.374;2022-07-05T06:32:46;24.70;99.90
22680;DHT22;11507;44.858;10.374;2022-07-05T06:35:12;24.90;99.90
22680;DHT22;11507;44.858;10.374;2022-07-05T06:37:51;25.00;99.90
22680;DHT22;11507;44.858;10.374;2022-07-05T06:40:24;25.10;99.90
22680;DHT22;11507;44.858;10.374;2022-07-05T06:42:52;25.20;99.90
22680;DHT22;11507;44.858;10.374;2022-07-05T06:45:24;25.30;99.90
22680;DHT22;11507;44.858;10.374;2022-07-05T06:50:20;25.30;99.90
22680;DHT22;11507;44.858;10.374;2022-07-05T06:52:46;25.20;99.90
22680;DHT22;11507;44.858;10.374;2022-07-05T06:55:12;25.30;99.90
22680;DHT22;11507;44.858;10.374;2022-07-05T06:57:38;25.30;99.90
22680;DHT22;11507;44.858;10.374;2022-07-05T07:00:05;25.20;99.90
22680;DHT22;11507;44.858;10.374;2022-07-05T07:02:31;25.30;99.90
22680;DHT22;11507;44.858;10.374;2022-07-05T07:04:57;25.40;99.90
22680;DHT22;11507;44.858;10.374;2022-07-05T07:07:23;25.50;99.90
22680;DHT22;11507;44.858;10.374;2022-07-05T07:10:08;25.50;99.90
22680;DHT22;11507;44.858;10.374;2022-07-05T07:12:34;25.60;99.90
22680;DHT22;11507;44.858;10.374;2022-07-05T07:15:00;25.60;99.90
22680;DHT22;11507;44.858;10.374;2022-07-05T07:17:26;25.70;99.90
22680;DHT22;11507;44.858;10.374;2022-07-05T07:19:52;25.70;99.90
22680;DHT22;11507;44.858;10.374;2022-07-05T07:22:18;25.80;99.90
22680;DHT22;11507;44.858;10.374;2022-07-05T07:24:44;25.90;99.90
22680;DHT22;11507;44.858;10.374;2022-07-05T07:27:10;26.10;99.90
22680;DHT22;11507;44.858;10.374;2022-07-05T07:29:37;26.20;99.90
22680;DHT22;11507;44.858;10.374;2022-07-05T07:32:05;26.30;99.90
22680;DHT22;11507;44.858;10.374;2022-07-05T07:34:32;26.30;99.90
22680;DHT22;11507;44.858;10.374;2022-07-05T07:36:58;26.30;99.90
22680;DHT22;11507;44.858;10.374;2022-07-05T07:39:25;26.40;99.90
22680;DHT22;11507;44.858;10.374;2022-07-05T07:41:52;26.60;99.90
22680;DHT22;11507;44.858;10.374;2022-07-05T07:44:18;26.60;99.90
22680;DHT22;11507;44.858;10.374;2022-07-05T07:46:44;26.70;99.90
22680;DHT22;11507;44.858;10.374;2022-07-05T07:49:12;26.90;99.90
22680;DHT22;11507;44.858;10.374;2022-07-05T07:51:38;27.00;99.90
22680;DHT22;11507;44.858;10.374;2022-07-05T07:54:04;27.20;99.90
22680;DHT22;11507;44.858;10.374;2022-07-05T07:56:30;27.40;99.90
22680;DHT22;11507;44.858;10.374;2022-07-05T07:58:56;27.60;99.90
22680;DHT22;11507;44.858;10.374;2022-07-05T08:01:23;27.60;99.90
22680;DHT22;11507;44.858;10.374;2022-07-05T08:03:49;27.80;99.90
22680;DHT22;11507;44.858;10.374;2022-07-05T08:06:15;27.90;99.90
22680;DHT22;11507;44.858;10.374;2022-07-05T08:08:42;27.90;99.90
22680;DHT22;11507;44.858;10.374;2022-07-05T08:11:12;27.90;99.90
22680;DHT22;11507;44.858;10.374;2022-07-05T08:13:39;27.80;99.90
22680;DHT22;11507;44.858;10.374;2022-07-05T08:16:08;28.20;99.90
22680;DHT22;11507;44.858;10.374;2022-07-05T08:18:35;28.30;99.90
22680;DHT22;11507;44.858;10.374;2022-07-05T08:21:20;28.30;99.90
22680;DHT22;11507;44.858;10.374;2022-07-05T08:24:00;28.30;99.90
22680;DHT22;11507;44.858;10.374;2022-07-05T08:26:27;28.40;99.90
22680;DHT22;11507;44.858;10.374;2022-07-05T08:28:54;28.50;99.90
22680;DHT22;11507;44.858;10.374;2022-07-05T08:31:20;28.60;99.90
22680;DHT22;11507;44.858;10.374;2022-07-05T08:33:47;28.80;99.90
22680;DHT22;11507;44.858;10.374;2022-07-05T08:36:13;28.80;99.90
22680;DHT22;11507;44.858;10.374;2022-07-05T08:38:39;29.00;99.90
22680;DHT22;11507;44.858;10.374;2022-07-05T08:41:10;29.10;99.90
22680;DHT22;11507;44.858;10.374;2022-07-05T08:43:41;29.20;99.90
22680;DHT22;11507;44.858;10.374;2022-07-05T08:46:08;29.30;99.90
22680;DHT22;11507;44.858;10.374;2022-07-05T08:48:41;29.50;99.90
22680;DHT22;11507;44.858;10.374;2022-07-05T08:51:18;29.70;99.90
22680;DHT22;11507;44.858;10.374;2022-07-05T08:53:45;29.80;99.90
22680;DHT22;11507;44.858;10.374;2022-07-05T08:56:13;29.80;99.90
22680;DHT22;11507;44.858;10.374;2022-07-05T08:58:39;30.00;99.90
22680;DHT22;11507;44.858;10.374;2022-07-05T09:01:07;30.40;99.90
22680;DHT22;11507;44.858;10.374;2022-07-05T09:03:39;30.70;99.90
22680;DHT22;11507;44.858;10.374;2022-07-05T09:06:09;30.80;99.90
22680;DHT22;11507;44.858;10.374;2022-07-05T09:08:37;30.70;99.00
22680;DHT22;11507;44.858;10.374;2022-07-05T09:11:15;30.30;99.00
22680;DHT22;11507;44.858;10.374;2022-07-05T09:13:47;30.20;99.90
22680;DHT22;11507;44.858;10.374;2022-07-05T09:16:14;30.20;99.00
22680;DHT22;11507;44.858;10.374;2022-07-05T09:18:49;30.10;98.30
22680;DHT22;11507;44.858;10.374;2022-07-05T09:21:19;30.10;99.30
22680;DHT22;11507;44.858;10.374;2022-07-05T09:23:54;30.30;98.90
22680;DHT22;11507;44.858;10.374;2022-07-05T09:29:20;30.50;99.30
22680;DHT22;11507;44.858;10.374;2022-07-05T09:31:48;30.80;98.30
22680;DHT22;11507;44.858;10.374;2022-07-05T09:34:19;31.00;99.90
22680;DHT22;11507;44.858;10.374;2022-07-05T09:42:14;31.20;96.50
22680;DHT22;11507;44.858;10.374;2022-07-05T09:44:52;31.40;98.00
22680;DHT22;11507;44.858;10.374;2022-07-05T09:47:22;31.90;99.30
22680;DHT22;11507;44.858;10.374;2022-07-05T09:49:55;32.20;98.10
22680;DHT22;11507;44.858;10.374;2022-07-05T09:52:36;32.50;96.00
22680;DHT22;11507;44.858;10.374;2022-07-05T09:55:10;32.80;95.20
22680;DHT22;11507;44.858;10.374;2022-07-05T09:57:41;32.70;95.80
22680;DHT22;11507;44.858;10.374;2022-07-05T10:00:18;33.00;97.80
22680;DHT22;11507;44.858;10.374;2022-07-05T10:02:49;33.00;95.40
22680;DHT22;11507;44.858;10.374;2022-07-05T10:05:24;33.10;96.30
22680;DHT22;11507;44.858;10.374;2022-07-05T10:07:52;33.30;95.40
22680;DHT22;11507;44.858;10.374;2022-07-05T10:10:23;33.60;97.50
22680;DHT22;11507;44.858;10.374;2022-07-05T10:12:52;33.90;96.80
22680;DHT22;11507;44.858;10.374;2022-07-05T10:15:21;34.20;94.20
22680;DHT22;11507;44.858;10.374;2022-07-05T10:18:11;34.30;91.70
22680;DHT22;11507;44.858;10.374;2022-07-05T10:20:42;34.00;91.20
22680;DHT22;11507;44.858;10.374;2022-07-05T10:23:15;33.80;91.80
22680;DHT22;11507;44.858;10.374;2022-07-05T10:25:43;33.90;95.40
22680;DHT22;11507;44.858;10.374;2022-07-05T10:28:10;34.30;96.30
22680;DHT22;11507;44.858;10.374;2022-07-05T10:30:37;34.50;91.00
22680;DHT22;11507;44.858;10.374;2022-07-05T10:33:06;34.60;92.40
22680;DHT22;11507;44.858;10.374;2022-07-05T10:35:33;34.70;92.90
22680;DHT22;11507;44.858;10.374;2022-07-05T10:38:01;35.00;93.50
22680;DHT22;11507;44.858;10.374;2022-07-05T10:40:30;35.30;91.10
22680;DHT22;11507;44.858;10.374;2022-07-05T10:43:01;35.50;88.40
22680;DHT22;11507;44.858;10.374;2022-07-05T10:45:32;35.40;86.90
22680;DHT22;11507;44.858;10.374;2022-07-05T10:50:53;35.80;88.30
22680;DHT22;11507;44.858;10.374;2022-07-05T10:53:20;36.10;89.80
22680;DHT22;11507;44.858;10.374;2022-07-05T10:55:50;36.40;92.20
22680;DHT22;11507;44.858;10.374;2022-07-05T11:00:43;36.80;85.20
22680;DHT22;11507;44.858;10.374;2022-07-05T11:03:37;36.90;90.00
22680;DHT22;11507;44.858;10.374;2022-07-05T11:06:05;36.90;82.20
22680;DHT22;11507;44.858;10.374;2022-07-05T11:11:31;36.90;84.40
22680;DHT22;11507;44.858;10.374;2022-07-05T11:13:59;37.20;80.50
22680;DHT22;11507;44.858;10.374;2022-07-05T11:16:35;37.20;79.70
22680;DHT22;11507;44.858;10.374;2022-07-05T11:19:05;37.20;76.10
22680;DHT22;11507;44.858;10.374;2022-07-05T11:21:32;37.10;80.90
22680;DHT22;11507;44.858;10.374;2022-07-05T11:26:44;37.80;84.50
22680;DHT22;11507;44.858;10.374;2022-07-05T11:29:47;37.80;82.50
22680;DHT22;11507;44.858;10.374;2022-07-05T11:34:52;38.60;75.30
22680;DHT22;11507;44.858;10.374;2022-07-05T11:37:26;38.50;74.30
22680;DHT22;11507;44.858;10.374;2022-07-05T11:42:34;37.90;74.80
22680;DHT22;11507;44.858;10.374;2022-07-05T11:45:08;38.40;79.80
22680;DHT22;11507;44.858;10.374;2022-07-05T11:47:35;38.40;68.20
22680;DHT22;11507;44.858;10.374;2022-07-05T11:50:02;38.30;69.90
22680;DHT22;11507;44.858;10.374;2022-07-05T11:52:30;38.40;69.60
22680;DHT22;11507;44.858;10.374;2022-07-05T11:54:58;38.40;76.00
22680;DHT22;11507;44.858;10.374;2022-07-05T11:57:24;38.70;77.50
22680;DHT22;11507;44.858;10.374;2022-07-05T11:59:50;39.00;75.10
22680;DHT22;11507;44.858;10.374;2022-07-05T12:02:17;39.30;72.30
22680;DHT22;11507;44.858;10.374;2022-07-05T12:04:56;39.40;63.00
22680;DHT22;11507;44.858;10.374;2022-07-05T12:07:30;39.50;70.90
22680;DHT22;11507;44.858;10.374;2022-07-05T12:09:58;39.60;67.80
22680;DHT22;11507;44.858;10.374;2022-07-05T12:12:43;39.90;66.80
22680;DHT22;11507;44.858;10.374;2022-07-05T12:15:17;40.10;67.10
22680;DHT22;11507;44.858;10.374;2022-07-05T12:17:44;40.30;68.90
22680;DHT22;11507;44.858;10.374;2022-07-05T12:20:15;40.70;64.50
22680;DHT22;11507;44.858;10.374;2022-07-05T12:22:45;40.90;62.70
22680;DHT22;11507;44.858;10.374;2022-07-05T12:25:20;40.80;62.10
22680;DHT22;11507;44.858;10.374;2022-07-05T12:27:47;40.90;64.00
22680;DHT22;11507;44.858;10.374;2022-07-05T12:30:14;41.10;65.00
22680;DHT22;11507;44.858;10.374;2022-07-05T12:32:59;41.40;64.60
22680;DHT22;11507;44.858;10.374;2022-07-05T12:35:39;41.70;62.10
22680;DHT22;11507;44.858;10.374;2022-07-05T12:40:37;42.20;58.30
22680;DHT22;11507;44.858;10.374;2022-07-05T12:43:21;42.30;56.10
22680;DHT22;11507;44.858;10.374;2022-07-05T12:46:07;42.40;58.40
22680;DHT22;11507;44.858;10.374;2022-07-05T12:48:38;42.60;54.10
22680;DHT22;11507;44.858;10.374;2022-07-05T12:51:06;42.60;52.80
22680;DHT22;11507;44.858;10.374;2022-07-05T12:53:33;42.70;54.60
22680;DHT22;11507;44.858;10.374;2022-07-05T12:56:23;42.80;54.90
22680;DHT22;11507;44.858;10.374;2022-07-05T12:59:10;42.90;53.50
22680;DHT22;11507;44.858;10.374;2022-07-05T13:01:41;43.00;53.60
22680;DHT22;11507;44.858;10.374;2022-07-05T13:06:41;43.30;52.80
22680;DHT22;11507;44.858;10.374;2022-07-05T13:09:09;43.50;51.20
22680;DHT22;11507;44.858;10.374;2022-07-05T13:11:35;43.70;52.50
22680;DHT22;11507;44.858;10.374;2022-07-05T13:14:01;44.00;52.20
22680;DHT22;11507;44.858;10.374;2022-07-05T13:16:27;44.00;51.80
22680;DHT22;11507;44.858;10.374;2022-07-05T13:18:52;44.10;49.60
22680;DHT22;11507;44.858;10.374;2022-07-05T13:21:18;44.20;51.10
22680;DHT22;11507;44.858;10.374;2022-07-05T13:23:44;44.10;48.70
22680;DHT22;11507;44.858;10.374;2022-07-05T13:26:10;44.20;48.90
22680;DHT22;11507;44.858;10.374;2022-07-05T13:28:36;44.30;49.40
22680;DHT22;11507;44.858;10.374;2022-07-05T13:31:02;44.40;48.10
22680;DHT22;11507;44.858;10.374;2022-07-05T13:33:29;44.40;49.30
22680;DHT22;11507;44.858;10.374;2022-07-05T13:35:54;43.50;44.10
22680;DHT22;11507;44.858;10.374;2022-07-05T13:38:20;42.60;43.80
22680;DHT22;11507;44.858;10.374;2022-07-05T13:40:46;42.10;46.10
22680;DHT22;11507;44.858;10.374;2022-07-05T13:43:12;41.90;45.10
22680;DHT22;11507;44.858;10.374;2022-07-05T13:45:39;41.60;45.50
22680;DHT22;11507;44.858;10.374;2022-07-05T13:48:06;41.60;49.70
22680;DHT22;11507;44.858;10.374;2022-07-05T13:50:32;42.00;48.60
22680;DHT22;11507;44.858;10.374;2022-07-05T13:53:02;42.40;47.40
22680;DHT22;11507;44.858;10.374;2022-07-05T13:55:28;42.20;44.70
22680;DHT22;11507;44.858;10.374;2022-07-05T13:57:54;41.70;44.70
22680;DHT22;11507;44.858;10.374;2022-07-05T14:00:21;41.50;45.50
22680;DHT22;11507;44.858;10.374;2022-07-05T14:02:47;41.70;48.50
22680;DHT22;11507;44.858;10.374;2022-07-05T14:05:13;42.00;45.30
22680;DHT22;11507;44.858;10.374;2022-07-05T14:07:39;42.50;47.60
22680;DHT22;11507;44.858;10.374;2022-07-05T14:10:05;42.90;46.10
22680;DHT22;11507;44.858;10.374;2022-07-05T14:12:31;43.20;47.40
22680;DHT22;11507;44.858;10.374;2022-07-05T14:14:57;43.10;46.80
22680;DHT22;11507;44.858;10.374;2022-07-05T14:17:23;43.10;45.40
22680;DHT22;11507;44.858;10.374;2022-07-05T14:19:48;43.10;45.20
22680;DHT22;11507;44.858;10.374;2022-07-05T14:22:14;42.50;44.10
22680;DHT22;11507;44.858;10.374;2022-07-05T14:24:40;41.80;45.30
22680;DHT22;11507;44.858;10.374;2022-07-05T14:27:06;41.20;46.50
22680;DHT22;11507;44.858;10.374;2022-07-05T14:29:34;41.20;48.80
22680;DHT22;11507;44.858;10.374;2022-07-05T14:32:00;41.50;47.90
22680;DHT22;11507;44.858;10.374;2022-07-05T14:34:26;41.70;48.60
22680;DHT22;11507;44.858;10.374;2022-07-05T14:36:55;41.90;46.90
22680;DHT22;11507;44.858;10.374;2022-07-05T14:39:21;42.20;49.60
22680;DHT22;11507;44.858;10.374;2022-07-05T14:41:52;42.50;47.90
22680;DHT22;11507;44.858;10.374;2022-07-05T14:44:18;42.60;48.30
22680;DHT22;11507;44.858;10.374;2022-07-05T14:46:44;43.00;47.60
22680;DHT22;11507;44.858;10.374;2022-07-05T14:49:11;42.90;46.40
22680;DHT22;11507;44.858;10.374;2022-07-05T14:51:37;42.90;47.20
22680;DHT22;11507;44.858;10.374;2022-07-05T14:54:03;43.00;47.30
22680;DHT22;11507;44.858;10.374;2022-07-05T14:56:29;43.10;47.00
22680;DHT22;11507;44.858;10.374;2022-07-05T14:58:55;43.20;46.90
22680;DHT22;11507;44.858;10.374;2022-07-05T15:01:21;43.10;44.50
22680;DHT22;11507;44.858;10.374;2022-07-05T15:03:47;42.90;47.40
22680;DHT22;11507;44.858;10.374;2022-07-05T15:06:12;43.00;47.80
22680;DHT22;11507;44.858;10.374;2022-07-05T15:08:38;43.00;46.70
22680;DHT22;11507;44.858;10.374;2022-07-05T15:11:04;42.70;44.40
22680;DHT22;11507;44.858;10.374;2022-07-05T15:13:32;42.30;47.10
22680;DHT22;11507;44.858;10.374;2022-07-05T15:16:00;42.00;47.90
22680;DHT22;11507;44.858;10.374;2022-07-05T15:18:26;41.50;44.90
22680;DHT22;11507;44.858;10.374;2022-07-05T15:20:53;41.00;47.10
22680;DHT22;11507;44.858;10.374;2022-07-05T15:23:20;40.70;49.60
22680;DHT22;11507;44.858;10.374;2022-07-05T15:25:46;40.70;50.10
22680;DHT22;11507;44.858;10.374;2022-07-05T15:28:12;40.80;48.50
22680;DHT22;11507;44.858;10.374;2022-07-05T15:30:41;40.40;48.40
22680;DHT22;11507;44.858;10.374;2022-07-05T15:33:07;40.20;47.50
22680;DHT22;11507;44.858;10.374;2022-07-05T15:35:34;40.00;48.40
22680;DHT22;11507;44.858;10.374;2022-07-05T15:38:00;39.80;48.30
22680;DHT22;11507;44.858;10.374;2022-07-05T15:40:26;39.50;49.60
22680;DHT22;11507;44.858;10.374;2022-07-05T15:42:52;39.40;50.70
22680;DHT22;11507;44.858;10.374;2022-07-05T15:45:17;39.40;50.80
22680;DHT22;11507;44.858;10.374;2022-07-05T15:47:43;39.40;51.00
22680;DHT22;11507;44.858;10.374;2022-07-05T15:50:10;39.20;51.20
22680;DHT22;11507;44.858;10.374;2022-07-05T15:52:39;39.10;50.60
22680;DHT22;11507;44.858;10.374;2022-07-05T15:55:06;39.10;50.30